createdAt,value
2023-05-22T00:00:20.255Z,9.77
2023-05-22T00:02:48.652Z,9.57
2023-05-22T00:05:18.601Z,8.23
2023-05-22T00:07:46.733Z,11.37
2023-05-22T00:10:14.729Z,10.87
2023-05-22T00:12:42.742Z,9.57
2023-05-22T00:15:11.657Z,8.43
2023-05-22T00:17:42.415Z,9.03
2023-05-22T00:20:11.318Z,9.97
2023-05-22T00:22:42.500Z,10.83
2023-05-22T00:25:11.439Z,12.17
2023-05-22T00:27:39.584Z,11.07
2023-05-22T00:30:10.561Z,11.33
2023-05-22T00:32:38.717Z,11.17
2023-05-22T00:35:09.085Z,10.30
2023-05-22T00:37:37.187Z,12.07
2023-05-22T00:40:06.144Z,13.93
2023-05-22T00:42:34.308Z,12.83
2023-05-22T00:45:02.261Z,12.27
2023-05-22T00:47:30.569Z,11.57
2023-05-22T00:49:58.721Z,11.33
2023-05-22T00:52:30.305Z,13.83
2023-05-22T00:57:42.200Z,13.43
2023-05-22T01:00:12.613Z,11.63
2023-05-22T01:02:44.957Z,11.33
2023-05-22T01:05:13.626Z,13.13
2023-05-22T01:07:43.083Z,13.43
2023-05-22T01:10:11.512Z,13.43
2023-05-22T01:12:44.248Z,18.37
2023-05-22T01:15:25.362Z,17.23
2023-05-22T01:18:07.334Z,15.90
2023-05-22T01:20:38.210Z,17.90
2023-05-22T01:23:27.539Z,16.03
2023-05-22T01:26:04.172Z,15.30
2023-05-22T01:28:38.574Z,14.93
2023-05-22T01:31:11.539Z,14.80
2023-05-22T01:33:45.015Z,15.77
2023-05-22T01:36:14.331Z,17.00
2023-05-22T01:38:43.027Z,14.97
2023-05-22T01:41:11.271Z,16.13
2023-05-22T01:43:39.445Z,14.70
2023-05-22T01:46:08.987Z,14.57
2023-05-22T01:48:37.029Z,14.37
2023-05-22T01:51:09.144Z,16.63
2023-05-22T01:53:49.043Z,14.90
2023-05-22T01:56:19.170Z,17.93
2023-05-22T01:58:52.742Z,16.23
2023-05-22T02:01:23.842Z,14.40
2023-05-22T02:03:56.768Z,16.47
2023-05-22T02:06:27.071Z,18.13
2023-05-22T02:08:56.052Z,16.20
2023-05-22T02:11:26.964Z,17.93
2023-05-22T02:13:54.952Z,15.83
2023-05-22T02:16:24.705Z,17.57
2023-05-22T02:18:54.352Z,14.97
2023-05-22T02:21:23.549Z,16.27
2023-05-22T02:23:51.508Z,14.57
2023-05-22T02:26:19.479Z,15.70
2023-05-22T02:28:47.481Z,14.07
2023-05-22T02:31:16.424Z,13.93
2023-05-22T02:33:45.870Z,18.33
2023-05-22T02:36:14.703Z,16.07
2023-05-22T02:38:42.722Z,15.27
2023-05-22T02:41:10.784Z,15.87
2023-05-22T02:43:38.791Z,13.77
2023-05-22T02:46:06.860Z,14.80
2023-05-22T02:48:35.006Z,18.60
2023-05-22T02:51:04.514Z,16.33
2023-05-22T02:53:33.782Z,17.60
2023-05-22T02:56:01.784Z,19.67
2023-05-22T02:58:29.799Z,17.43
2023-05-22T03:00:57.805Z,18.40
2023-05-22T03:03:26.576Z,19.03
2023-05-22T03:05:58.596Z,17.87
2023-05-22T03:08:29.241Z,19.47
2023-05-22T03:10:57.578Z,18.30
2023-05-22T03:13:25.820Z,17.57
2023-05-22T03:15:53.883Z,14.27
2023-05-22T03:18:22.049Z,17.97
2023-05-22T03:20:50.101Z,20.13
2023-05-22T03:23:18.224Z,16.77
2023-05-22T03:25:47.737Z,17.47
2023-05-22T03:28:16.242Z,15.67
2023-05-22T03:30:44.288Z,15.50
2023-05-22T03:33:12.867Z,15.30
2023-05-22T03:35:41.028Z,15.63
2023-05-22T03:38:08.994Z,13.43
2023-05-22T03:40:37.130Z,12.70
2023-05-22T03:43:06.778Z,14.07
2023-05-22T03:45:34.777Z,17.70
2023-05-22T03:48:02.867Z,13.27
2023-05-22T03:50:31.022Z,13.87
2023-05-22T03:52:59.055Z,14.97
2023-05-22T03:55:27.710Z,14.20
2023-05-22T03:57:55.822Z,14.07
2023-05-22T04:00:36.035Z,14.87
2023-05-22T04:03:04.148Z,13.73
2023-05-22T04:05:32.531Z,17.47
2023-05-22T04:08:00.573Z,13.80
2023-05-22T04:10:28.687Z,16.50
2023-05-22T04:12:56.688Z,15.73
2023-05-22T04:15:26.764Z,16.07
2023-05-22T04:17:55.316Z,15.57
2023-05-22T04:20:24.029Z,18.13
2023-05-22T04:22:52.088Z,14.83
2023-05-22T04:25:20.098Z,16.20
2023-05-22T04:27:48.678Z,14.07
2023-05-22T04:30:17.222Z,18.77
2023-05-22T04:32:46.692Z,16.27
2023-05-22T04:35:18.554Z,16.77
2023-05-22T04:37:46.851Z,15.03
2023-05-22T04:40:15.504Z,15.80
2023-05-22T04:42:44.799Z,17.57
2023-05-22T04:45:14.111Z,15.33
2023-05-22T04:47:42.865Z,17.53
2023-05-22T04:50:14.532Z,15.67
2023-05-22T04:52:42.568Z,17.00
2023-05-22T04:55:12.250Z,15.93
2023-05-22T04:57:40.231Z,14.87
2023-05-22T05:00:09.779Z,16.07
2023-05-22T05:02:37.839Z,15.13
2023-05-22T05:05:06.209Z,16.17
2023-05-22T05:07:37.834Z,17.33
2023-05-22T05:10:06.218Z,21.10
2023-05-22T05:12:34.169Z,18.87
2023-05-22T05:15:02.181Z,16.50
2023-05-22T05:17:30.262Z,15.70
2023-05-22T05:19:58.376Z,16.83
2023-05-22T05:22:26.871Z,18.07
2023-05-22T05:24:56.396Z,17.77
2023-05-22T05:27:24.412Z,17.43
2023-05-22T05:29:52.374Z,19.37
2023-05-22T05:32:20.463Z,14.13
2023-05-22T05:34:48.566Z,14.50
2023-05-22T05:37:16.771Z,13.47
2023-05-22T05:39:44.807Z,13.43
2023-05-22T05:42:14.251Z,13.87
2023-05-22T05:44:42.545Z,15.43
2023-05-22T05:47:11.350Z,12.47
2023-05-22T05:49:39.458Z,14.50
2023-05-22T05:52:08.277Z,11.83
2023-05-22T05:54:36.322Z,10.40
2023-05-22T05:57:04.417Z,9.63
2023-05-22T05:59:33.864Z,10.90
2023-05-22T06:02:01.845Z,12.43
2023-05-22T06:04:29.821Z,10.13
2023-05-22T06:06:57.839Z,9.80
2023-05-22T06:09:25.933Z,9.93
2023-05-22T06:11:53.980Z,9.23
2023-05-22T06:14:22.274Z,9.30
2023-05-22T06:16:52.205Z,13.73
2023-05-22T06:19:22.993Z,9.07
2023-05-22T06:21:52.264Z,15.00
2023-05-22T06:24:23.217Z,8.87
2023-05-22T06:26:51.338Z,9.00
2023-05-22T06:29:19.412Z,10.37
2023-05-22T06:31:47.764Z,9.53
2023-05-22T06:34:17.265Z,8.73
2023-05-22T06:36:46.130Z,10.57
2023-05-22T06:39:14.162Z,10.20
2023-05-22T06:41:42.212Z,9.53
2023-05-22T06:44:10.599Z,11.73
2023-05-22T06:46:38.801Z,12.93
2023-05-22T06:49:07.001Z,10.50
2023-05-22T06:51:36.409Z,9.80
2023-05-22T06:54:07.144Z,12.30
2023-05-22T06:56:35.305Z,9.13
2023-05-22T06:59:04.838Z,11.53
2023-05-22T07:01:34.587Z,10.87
2023-05-22T07:04:02.679Z,10.63
2023-05-22T07:06:32.581Z,11.10
2023-05-22T07:09:02.128Z,10.33
2023-05-22T07:11:30.151Z,11.13
2023-05-22T07:13:58.836Z,13.10
2023-05-22T07:16:27.574Z,14.53
2023-05-22T07:18:55.677Z,14.57
2023-05-22T07:21:25.100Z,9.53
2023-05-22T07:23:53.421Z,9.67
2023-05-22T07:26:23.770Z,9.77
2023-05-22T07:28:51.797Z,9.77
2023-05-22T07:31:19.952Z,8.30
2023-05-22T07:33:48.000Z,9.13
2023-05-22T07:36:17.040Z,13.37
2023-05-22T07:38:45.107Z,10.43
2023-05-22T07:41:13.080Z,9.93
2023-05-22T07:43:42.582Z,9.70
2023-05-22T07:46:12.109Z,10.07
2023-05-22T07:48:40.132Z,12.43
2023-05-22T07:51:08.438Z,9.17
2023-05-22T07:53:36.423Z,8.60
2023-05-22T07:56:04.621Z,8.60
2023-05-22T07:58:34.879Z,6.60
2023-05-22T08:01:06.286Z,8.67
2023-05-22T08:03:35.717Z,8.60
2023-05-22T08:06:04.448Z,6.17
2023-05-22T08:08:33.017Z,6.40
2023-05-22T08:11:04.094Z,7.27
2023-05-22T08:13:32.625Z,6.30
2023-05-22T08:16:01.628Z,8.27
2023-05-22T08:18:31.230Z,6.50
2023-05-22T08:21:00.387Z,6.83
2023-05-22T08:23:28.426Z,6.93
2023-05-22T08:25:56.438Z,6.70
2023-05-22T08:28:24.518Z,5.90
2023-05-22T08:30:52.630Z,7.13
2023-05-22T08:33:20.939Z,7.37
2023-05-22T08:35:50.341Z,9.87
2023-05-22T08:38:18.398Z,6.77
2023-05-22T08:40:49.024Z,7.50
2023-05-22T08:43:17.272Z,7.30
2023-05-22T08:45:46.063Z,7.10
2023-05-22T08:48:14.444Z,8.87
2023-05-22T08:50:43.086Z,8.20
2023-05-22T08:53:15.114Z,7.23
2023-05-22T08:55:43.770Z,7.93
2023-05-22T08:58:12.632Z,7.63
2023-05-22T09:00:43.780Z,7.33
2023-05-22T09:03:14.234Z,6.97
2023-05-22T09:05:42.296Z,8.53
2023-05-22T09:08:19.884Z,10.20
2023-05-22T09:10:50.226Z,7.63
2023-05-22T09:13:28.582Z,7.87
2023-05-22T09:15:59.662Z,8.93
2023-05-22T09:18:28.597Z,8.77
2023-05-22T09:20:58.808Z,10.40
2023-05-22T09:23:28.827Z,7.67
2023-05-22T09:25:58.523Z,7.90
2023-05-22T09:28:26.596Z,7.80
2023-05-22T09:30:55.611Z,8.90
2023-05-22T09:33:24.225Z,8.60
2023-05-22T09:35:53.447Z,8.40
2023-05-22T09:38:22.850Z,9.33
2023-05-22T09:40:54.223Z,8.50
2023-05-22T09:43:25.547Z,7.90
2023-05-22T09:45:57.841Z,7.07
2023-05-22T09:48:26.069Z,13.23
2023-05-22T09:50:55.271Z,7.23
2023-05-22T09:53:26.728Z,7.67
2023-05-22T09:55:55.846Z,8.63
2023-05-22T09:58:25.833Z,7.87
2023-05-22T10:00:54.705Z,7.17
2023-05-22T10:03:24.493Z,8.03
2023-05-22T10:05:53.752Z,6.73
2023-05-22T10:08:22.756Z,5.77
2023-05-22T10:10:52.406Z,6.23
2023-05-22T10:13:21.712Z,6.37
2023-05-22T10:15:51.742Z,7.73
2023-05-22T10:18:20.059Z,7.43
2023-05-22T10:20:48.584Z,7.33
2023-05-22T10:23:17.310Z,9.37
2023-05-22T10:25:45.754Z,7.03
2023-05-22T10:28:15.779Z,6.63
2023-05-22T10:30:49.106Z,5.77
2023-05-22T10:33:19.907Z,5.17
2023-05-22T10:35:51.551Z,5.60
2023-05-22T10:38:37.387Z,6.70
2023-05-22T10:41:05.836Z,6.20
2023-05-22T10:43:34.097Z,6.13
2023-05-22T10:46:05.364Z,6.40
2023-05-22T10:48:39.779Z,6.40
2023-05-22T10:51:08.129Z,7.07
2023-05-22T10:53:36.702Z,5.37
2023-05-22T10:56:11.728Z,5.20
2023-05-22T10:58:39.888Z,5.30
2023-05-22T11:01:13.092Z,5.73
2023-05-22T11:03:55.686Z,7.03
2023-05-22T11:06:36.928Z,7.17
2023-05-22T11:09:21.944Z,6.93
2023-05-22T11:12:13.957Z,5.13
2023-05-22T11:14:41.972Z,8.20
2023-05-22T11:17:09.991Z,6.00
2023-05-22T11:19:41.193Z,5.80
2023-05-22T11:22:09.261Z,6.07
2023-05-22T11:24:38.812Z,6.13
2023-05-22T11:27:07.847Z,7.03
2023-05-22T11:29:35.974Z,5.43
2023-05-22T11:32:04.100Z,5.53
2023-05-22T11:34:32.163Z,4.80
2023-05-22T11:37:01.696Z,4.90
2023-05-22T11:39:29.713Z,5.70
2023-05-22T11:41:57.713Z,5.37
2023-05-22T11:44:28.077Z,5.70
2023-05-22T11:46:56.174Z,5.80
2023-05-22T11:49:24.352Z,5.77
2023-05-22T11:51:53.271Z,5.87
2023-05-22T11:54:22.875Z,5.60
2023-05-22T11:56:50.867Z,6.40
2023-05-22T11:59:18.842Z,5.50
2023-05-22T12:01:46.869Z,7.07
2023-05-22T12:04:15.950Z,6.73
2023-05-22T12:06:44.076Z,9.27
2023-05-22T12:09:12.678Z,6.37
2023-05-22T12:11:46.784Z,7.83
2023-05-22T12:14:14.909Z,5.67
2023-05-22T12:16:44.762Z,6.50
2023-05-22T12:19:13.424Z,8.70
2023-05-22T12:21:42.289Z,5.73
2023-05-22T12:24:10.348Z,6.97
2023-05-22T12:26:38.655Z,8.33
2023-05-22T12:29:08.055Z,6.60
2023-05-22T12:31:38.890Z,6.50
2023-05-22T12:34:08.241Z,7.53
2023-05-22T12:36:36.477Z,6.50
2023-05-22T12:39:08.615Z,7.87
2023-05-22T12:41:36.647Z,6.93
2023-05-22T12:44:04.790Z,8.17
2023-05-22T12:46:34.520Z,7.07
2023-05-22T12:49:03.029Z,7.50
2023-05-22T12:51:32.541Z,8.23
2023-05-22T12:54:00.930Z,6.30
2023-05-22T12:56:29.043Z,8.70
2023-05-22T12:58:57.644Z,6.00
2023-05-22T13:01:25.922Z,7.30
2023-05-22T13:03:55.356Z,8.13
2023-05-22T13:06:23.383Z,6.07
2023-05-22T13:08:51.781Z,6.27
2023-05-22T13:11:23.534Z,6.00
2023-05-22T13:13:51.525Z,6.53
2023-05-22T13:16:19.665Z,5.67
2023-05-22T13:18:48.072Z,8.03
2023-05-22T13:21:17.717Z,6.03
2023-05-22T13:23:45.912Z,5.73
2023-05-22T13:26:13.917Z,5.73
2023-05-22T13:28:41.941Z,5.40
2023-05-22T13:31:09.925Z,6.03
2023-05-22T13:33:38.164Z,6.20
2023-05-22T13:36:06.618Z,5.20
2023-05-22T13:38:36.034Z,6.37
2023-05-22T13:41:04.048Z,4.67
2023-05-22T13:43:32.079Z,5.70
2023-05-22T13:46:00.078Z,6.07
2023-05-22T13:48:28.150Z,6.73
2023-05-22T13:50:56.271Z,5.20
2023-05-22T13:53:24.308Z,8.87
2023-05-22T13:55:55.291Z,5.57
2023-05-22T13:58:23.308Z,5.73
2023-05-22T14:00:51.445Z,7.70
2023-05-22T14:03:19.648Z,7.27
2023-05-22T14:05:47.688Z,5.83
2023-05-22T14:08:15.698Z,5.43
2023-05-22T14:10:43.711Z,5.30
2023-05-22T14:13:13.206Z,5.63
2023-05-22T14:15:42.642Z,4.90
2023-05-22T14:18:11.499Z,7.57
2023-05-22T14:20:39.521Z,5.87
2023-05-22T14:23:07.555Z,5.03
2023-05-22T14:25:35.541Z,5.97
2023-05-22T14:28:03.636Z,6.57
2023-05-22T14:30:33.077Z,4.97
2023-05-22T14:33:01.170Z,6.57
2023-05-22T14:35:29.303Z,5.03
2023-05-22T14:37:57.306Z,5.37
2023-05-22T14:40:25.305Z,6.00
2023-05-22T14:42:54.375Z,6.77
2023-05-22T14:45:22.722Z,7.13
2023-05-22T14:47:52.412Z,5.57
2023-05-22T14:50:21.150Z,9.07
2023-05-22T14:52:49.646Z,6.93
2023-05-22T14:55:18.311Z,7.77
2023-05-22T14:57:46.319Z,6.50
2023-05-22T15:00:15.470Z,6.50
2023-05-22T15:02:43.563Z,5.57
2023-05-22T15:05:13.007Z,8.20
2023-05-22T15:07:44.452Z,7.93
2023-05-22T15:10:13.900Z,7.80
2023-05-22T15:12:41.908Z,5.90
2023-05-22T15:15:10.411Z,6.07
2023-05-22T15:17:40.787Z,5.90
2023-05-22T15:20:10.927Z,7.60
2023-05-22T15:22:40.596Z,8.03
2023-05-22T15:25:09.430Z,6.37
2023-05-22T15:27:37.440Z,7.40
2023-05-22T15:30:06.002Z,5.17
2023-05-22T15:32:34.276Z,6.30
2023-05-22T15:35:02.371Z,5.70
2023-05-22T15:37:32.589Z,4.50
2023-05-22T15:40:03.385Z,5.27
2023-05-22T15:42:31.529Z,6.57
2023-05-22T15:44:59.993Z,5.17
2023-05-22T15:47:28.252Z,5.53
2023-05-22T15:49:56.319Z,4.83
2023-05-22T15:52:24.778Z,5.70
2023-05-22T15:54:54.443Z,5.37
2023-05-22T15:57:25.040Z,5.80
2023-05-22T15:59:53.089Z,6.90
2023-05-22T16:02:21.136Z,5.20
2023-05-22T16:04:50.027Z,6.90
2023-05-22T16:07:20.380Z,5.63
2023-05-22T16:09:50.348Z,7.90
2023-05-22T16:12:18.384Z,5.20
2023-05-22T16:14:47.914Z,7.53
2023-05-22T16:17:16.031Z,5.70
2023-05-22T16:19:44.301Z,5.57
2023-05-22T16:22:12.497Z,6.07
2023-05-22T16:24:40.473Z,5.77
2023-05-22T16:27:09.728Z,5.53
2023-05-22T16:29:37.730Z,5.33
2023-05-22T16:32:08.481Z,6.03
2023-05-22T16:34:36.716Z,6.20
2023-05-22T16:37:04.811Z,4.90
2023-05-22T16:39:32.819Z,5.57
2023-05-22T16:42:01.501Z,6.73
2023-05-22T16:44:30.004Z,5.70
2023-05-22T16:46:58.119Z,5.73
2023-05-22T16:49:27.575Z,5.67
2023-05-22T16:51:55.598Z,5.20
2023-05-22T16:54:23.634Z,5.50
2023-05-22T16:56:51.662Z,8.20
2023-05-22T16:59:19.737Z,9.83
2023-05-22T17:01:48.133Z,8.37
2023-05-22T17:04:16.231Z,5.53
2023-05-22T17:06:45.723Z,6.10
2023-05-22T17:09:13.714Z,6.70
2023-05-22T17:11:41.741Z,6.60
2023-05-22T17:14:11.402Z,6.67
2023-05-22T17:16:40.437Z,7.60
2023-05-22T17:19:08.460Z,7.20
2023-05-22T17:21:36.913Z,7.27
2023-05-22T17:24:06.791Z,7.70
2023-05-22T17:26:34.930Z,8.13
2023-05-22T17:29:02.986Z,8.60
2023-05-22T17:31:31.156Z,7.80
2023-05-22T17:33:59.223Z,8.37
2023-05-22T17:36:27.195Z,8.40
2023-05-22T17:38:55.200Z,8.90
2023-05-22T17:41:24.753Z,8.90
2023-05-22T17:43:52.771Z,9.77
2023-05-22T17:46:20.776Z,10.43
2023-05-22T17:48:48.797Z,10.00
2023-05-22T17:51:16.888Z,8.60
2023-05-22T17:53:44.935Z,7.67
2023-05-22T17:56:12.950Z,7.00
2023-05-22T17:58:42.580Z,7.03
2023-05-22T18:01:10.674Z,7.57
2023-05-22T18:03:38.835Z,7.67
2023-05-22T18:06:07.196Z,5.97
2023-05-22T18:08:35.304Z,6.63
2023-05-22T18:11:03.619Z,7.57
2023-05-22T18:13:31.684Z,6.37
2023-05-22T18:16:02.466Z,9.30
2023-05-22T18:18:30.488Z,9.27
2023-05-22T18:20:59.314Z,6.63
2023-05-22T18:23:27.408Z,6.77
2023-05-22T18:25:55.438Z,6.67
2023-05-22T18:28:26.638Z,8.57
2023-05-22T18:30:55.153Z,6.87
2023-05-22T18:33:25.632Z,7.23
2023-05-22T18:35:53.792Z,9.33
2023-05-22T18:38:22.424Z,7.53
2023-05-22T18:40:50.964Z,10.23
2023-05-22T18:43:19.060Z,6.80
2023-05-22T18:45:47.090Z,9.40
2023-05-22T18:48:15.102Z,7.00
2023-05-22T18:50:44.819Z,6.30
2023-05-22T18:53:12.909Z,6.83
2023-05-22T18:55:43.673Z,6.73
2023-05-22T18:58:11.734Z,6.87
2023-05-22T19:00:39.996Z,7.80
2023-05-22T19:03:11.443Z,7.57
2023-05-22T19:05:39.586Z,7.23
2023-05-22T19:08:09.767Z,8.30
2023-05-22T19:10:37.883Z,7.10
2023-05-22T19:13:06.415Z,6.87
2023-05-22T19:15:36.051Z,6.97
2023-05-22T19:18:04.166Z,8.83
2023-05-22T19:20:32.170Z,7.30
2023-05-22T19:23:00.191Z,7.63
2023-05-22T19:25:29.714Z,7.23
2023-05-22T19:27:57.715Z,7.53
2023-05-22T19:30:25.681Z,6.93
2023-05-22T19:32:55.968Z,8.27
2023-05-22T19:35:24.239Z,7.03
2023-05-22T19:37:52.214Z,7.37
2023-05-22T19:40:20.289Z,7.43
2023-05-22T19:42:49.741Z,7.27
2023-05-22T19:45:18.393Z,7.03
2023-05-22T19:47:46.485Z,8.20
2023-05-22T19:50:14.479Z,7.50
2023-05-22T19:52:42.517Z,8.90
2023-05-22T19:55:14.093Z,7.03
2023-05-22T19:57:44.460Z,9.33
2023-05-22T20:00:14.859Z,11.13
2023-05-22T20:02:42.921Z,7.23
2023-05-22T20:05:13.195Z,7.67
2023-05-22T20:07:41.781Z,7.03
2023-05-22T20:10:10.453Z,8.00
2023-05-22T20:12:38.498Z,10.00
2023-05-22T20:15:07.717Z,6.97
2023-05-22T20:17:38.490Z,7.13
2023-05-22T20:20:07.993Z,8.93
2023-05-22T20:22:36.126Z,8.53
2023-05-22T20:25:05.296Z,9.80
2023-05-22T20:27:33.349Z,7.77
2023-05-22T20:30:01.405Z,7.27
2023-05-22T20:32:29.525Z,8.20
2023-05-22T20:34:59.083Z,7.60
2023-05-22T20:37:27.169Z,7.13
2023-05-22T20:39:55.223Z,7.07
2023-05-22T20:42:23.759Z,8.97
2023-05-22T20:44:52.763Z,9.43
2023-05-22T20:47:20.778Z,8.20
2023-05-22T20:49:48.839Z,7.90
2023-05-22T20:52:18.279Z,11.10
2023-05-22T20:54:46.370Z,10.37
2023-05-22T20:57:14.349Z,7.90
2023-05-22T20:59:42.477Z,10.43
2023-05-22T21:02:10.514Z,9.07
2023-05-22T21:04:38.535Z,10.93
2023-05-22T21:07:06.553Z,9.93
2023-05-22T21:09:36.060Z,9.53
2023-05-22T21:12:04.121Z,9.53
2023-05-22T21:14:32.118Z,11.43
2023-05-22T21:17:00.238Z,9.90
2023-05-22T21:19:28.411Z,10.17
2023-05-22T21:21:56.446Z,10.70
2023-05-22T21:24:24.515Z,8.37
2023-05-22T21:26:53.948Z,9.47
2023-05-22T21:29:22.008Z,9.17
2023-05-22T21:31:50.125Z,9.87
2023-05-22T21:34:18.195Z,11.30
2023-05-22T21:36:46.274Z,10.77
2023-05-22T21:39:14.665Z,10.33
2023-05-22T21:41:42.685Z,12.10
2023-05-22T21:44:12.157Z,10.93
2023-05-22T21:46:40.286Z,11.40
2023-05-22T21:49:09.789Z,13.67
2023-05-22T21:51:37.905Z,13.63
2023-05-22T21:54:06.275Z,11.60
2023-05-22T21:56:34.306Z,12.93
2023-05-22T21:59:02.357Z,9.23
2023-05-22T22:01:31.886Z,11.67
2023-05-22T22:04:00.038Z,10.40
2023-05-22T22:06:28.202Z,13.67
2023-05-22T22:08:58.860Z,12.83
2023-05-22T22:11:27.718Z,11.87
2023-05-22T22:13:55.718Z,11.43
2023-05-22T22:16:24.543Z,11.50
2023-05-22T22:18:54.212Z,10.67
2023-05-22T22:21:22.567Z,11.47
2023-05-22T22:23:50.824Z,11.33
2023-05-22T22:26:18.844Z,11.17
2023-05-22T22:28:46.921Z,12.10
2023-05-22T22:31:15.066Z,10.73
2023-05-22T22:33:43.085Z,10.63
2023-05-22T22:36:12.520Z,10.33
2023-05-22T22:38:40.580Z,12.63
2023-05-22T22:41:09.839Z,11.67
2023-05-22T22:43:37.941Z,12.60
2023-05-22T22:46:06.066Z,10.80
2023-05-22T22:48:34.071Z,12.43
2023-05-22T22:51:02.565Z,12.20
2023-05-22T22:53:31.971Z,12.27
2023-05-22T22:56:00.517Z,11.33
2023-05-22T22:58:28.575Z,11.90
2023-05-22T23:00:56.588Z,11.30
2023-05-22T23:03:24.650Z,11.90
2023-05-22T23:05:52.682Z,13.20
2023-05-22T23:08:20.708Z,12.30
2023-05-22T23:10:50.143Z,13.53
2023-05-22T23:13:18.181Z,14.13
2023-05-22T23:15:46.213Z,12.40
2023-05-22T23:18:14.446Z,11.73
2023-05-22T23:20:42.439Z,14.70
2023-05-22T23:23:10.509Z,12.67
2023-05-22T23:25:38.650Z,14.77
2023-05-22T23:28:08.568Z,13.33
2023-05-22T23:30:36.645Z,12.53
2023-05-22T23:33:06.247Z,14.33
2023-05-22T23:35:34.225Z,14.83
2023-05-22T23:38:02.224Z,13.37
2023-05-22T23:40:30.188Z,14.37
2023-05-22T23:42:58.231Z,15.33
2023-05-22T23:45:27.723Z,14.73
2023-05-22T23:47:55.823Z,13.43
2023-05-22T23:50:23.892Z,15.77
2023-05-22T23:52:51.903Z,13.20
2023-05-22T23:55:19.983Z,14.43
2023-05-22T23:57:48.013Z,13.43
